sensor_id;sensor_type;location;lat;lon;timestamp;P1;durP1;ratioP1;P2;durP2;ratioP2
57325;SDS011;43161;50.950;18.224;2023-04-03T00:01:12;9.20;;;2.80;;
57325;SDS011;43161;50.950;18.224;2023-04-03T00:03:38;12.00;;;2.70;;
57325;SDS011;43161;50.950;18.224;2023-04-03T00:06:04;11.20;;;2.80;;
57325;SDS011;43161;50.950;18.224;2023-04-03T00:08:34;11.90;;;2.60;;
57325;SDS011;43161;50.950;18.224;2023-04-03T00:11:00;10.40;;;2.70;;
57325;SDS011;43161;50.950;18.224;2023-04-03T00:13:27;12.10;;;2.80;;
57325;SDS011;43161;50.950;18.224;2023-04-03T00:15:53;10.40;;;3.00;;
57325;SDS011;43161;50.950;18.224;2023-04-03T00:18:19;10.50;;;2.40;;
57325;SDS011;43161;50.950;18.224;2023-04-03T00:20:47;10.80;;;2.40;;
57325;SDS011;43161;50.950;18.224;2023-04-03T00:23:13;11.40;;;2.70;;
57325;SDS011;43161;50.950;18.224;2023-04-03T00:25:38;12.20;;;2.20;;
57325;SDS011;43161;50.950;18.224;2023-04-03T00:28:04;10.90;;;2.60;;
57325;SDS011;43161;50.950;18.224;2023-04-03T00:30:30;13.00;;;2.50;;
57325;SDS011;43161;50.950;18.224;2023-04-03T00:32:57;13.90;;;2.80;;
57325;SDS011;43161;50.950;18.224;2023-04-03T00:35:23;13.60;;;3.00;;
57325;SDS011;43161;50.950;18.224;2023-04-03T00:37:52;34.40;;;8.40;;
57325;SDS011;43161;50.950;18.224;2023-04-03T00:40:19;24.80;;;7.10;;
57325;SDS011;43161;50.950;18.224;2023-04-03T00:42:48;22.70;;;5.00;;
57325;SDS011;43161;50.950;18.224;2023-04-03T00:47:43;36.10;;;7.10;;
57325;SDS011;43161;50.950;18.224;2023-04-03T00:50:09;35.20;;;6.40;;
57325;SDS011;43161;50.950;18.224;2023-04-03T00:52:35;27.80;;;5.40;;
57325;SDS011;43161;50.950;18.224;2023-04-03T00:55:04;18.00;;;4.10;;
57325;SDS011;43161;50.950;18.224;2023-04-03T00:57:31;12.10;;;2.90;;
57325;SDS011;43161;50.950;18.224;2023-04-03T00:59:59;21.80;;;5.50;;
57325;SDS011;43161;50.950;18.224;2023-04-03T01:02:28;22.30;;;5.20;;
57325;SDS011;43161;50.950;18.224;2023-04-03T01:04:53;19.20;;;3.80;;
57325;SDS011;43161;50.950;18.224;2023-04-03T01:07:21;11.40;;;3.20;;
57325;SDS011;43161;50.950;18.224;2023-04-03T01:09:49;16.70;;;3.10;;
57325;SDS011;43161;50.950;18.224;2023-04-03T01:12:24;15.10;;;3.70;;
57325;SDS011;43161;50.950;18.224;2023-04-03T01:14:57;19.10;;;4.30;;
57325;SDS011;43161;50.950;18.224;2023-04-03T01:25:52;14.30;;;3.30;;
57325;SDS011;43161;50.950;18.224;2023-04-03T01:28:24;13.00;;;3.00;;
57325;SDS011;43161;50.950;18.224;2023-04-03T01:33:37;11.10;;;3.00;;
57325;SDS011;43161;50.950;18.224;2023-04-03T01:36:03;14.50;;;3.40;;
57325;SDS011;43161;50.950;18.224;2023-04-03T01:38:30;14.00;;;3.40;;
57325;SDS011;43161;50.950;18.224;2023-04-03T01:40:56;15.90;;;3.60;;
57325;SDS011;43161;50.950;18.224;2023-04-03T01:43:21;14.50;;;3.90;;
57325;SDS011;43161;50.950;18.224;2023-04-03T01:45:47;14.10;;;3.70;;
57325;SDS011;43161;50.950;18.224;2023-04-03T01:48:14;15.80;;;4.10;;
57325;SDS011;43161;50.950;18.224;2023-04-03T01:50:40;15.40;;;4.30;;
57325;SDS011;43161;50.950;18.224;2023-04-03T01:53:06;15.70;;;4.00;;
57325;SDS011;43161;50.950;18.224;2023-04-03T01:55:32;14.60;;;3.50;;
57325;SDS011;43161;50.950;18.224;2023-04-03T01:57:57;18.00;;;4.40;;
57325;SDS011;43161;50.950;18.224;2023-04-03T02:00:23;10.90;;;3.30;;
57325;SDS011;43161;50.950;18.224;2023-04-03T02:02:49;16.70;;;4.20;;
57325;SDS011;43161;50.950;18.224;2023-04-03T02:05:15;16.70;;;5.10;;
57325;SDS011;43161;50.950;18.224;2023-04-03T02:07:41;13.60;;;4.00;;
57325;SDS011;43161;50.950;18.224;2023-04-03T02:10:07;14.80;;;4.20;;
57325;SDS011;43161;50.950;18.224;2023-04-03T02:12:33;14.30;;;4.20;;
57325;SDS011;43161;50.950;18.224;2023-04-03T02:14:59;16.60;;;4.30;;
57325;SDS011;43161;50.950;18.224;2023-04-03T02:17:24;14.10;;;4.30;;
57325;SDS011;43161;50.950;18.224;2023-04-03T02:19:50;16.60;;;4.10;;
57325;SDS011;43161;50.950;18.224;2023-04-03T02:22:16;14.30;;;4.00;;
57325;SDS011;43161;50.950;18.224;2023-04-03T02:24:41;13.90;;;4.50;;
57325;SDS011;43161;50.950;18.224;2023-04-03T02:27:07;14.00;;;4.60;;
57325;SDS011;43161;50.950;18.224;2023-04-03T02:29:32;16.30;;;4.50;;
57325;SDS011;43161;50.950;18.224;2023-04-03T02:31:58;15.20;;;4.30;;
57325;SDS011;43161;50.950;18.224;2023-04-03T02:34:24;16.50;;;4.10;;
57325;SDS011;43161;50.950;18.224;2023-04-03T02:36:50;15.50;;;4.60;;
57325;SDS011;43161;50.950;18.224;2023-04-03T02:39:15;17.00;;;5.00;;
57325;SDS011;43161;50.950;18.224;2023-04-03T02:41:41;14.60;;;4.80;;
57325;SDS011;43161;50.950;18.224;2023-04-03T02:44:09;16.10;;;4.40;;
57325;SDS011;43161;50.950;18.224;2023-04-03T02:46:35;20.20;;;5.10;;
57325;SDS011;43161;50.950;18.224;2023-04-03T02:49:01;16.10;;;4.30;;
57325;SDS011;43161;50.950;18.224;2023-04-03T02:51:27;16.70;;;4.40;;
57325;SDS011;43161;50.950;18.224;2023-04-03T02:53:53;15.30;;;5.00;;
57325;SDS011;43161;50.950;18.224;2023-04-03T02:56:19;14.50;;;4.40;;
57325;SDS011;43161;50.950;18.224;2023-04-03T02:58:45;16.70;;;4.90;;
57325;SDS011;43161;50.950;18.224;2023-04-03T03:01:11;15.50;;;4.60;;
57325;SDS011;43161;50.950;18.224;2023-04-03T03:03:37;17.30;;;5.40;;
57325;SDS011;43161;50.950;18.224;2023-04-03T03:06:04;15.80;;;4.90;;
57325;SDS011;43161;50.950;18.224;2023-04-03T03:08:31;15.80;;;4.80;;
57325;SDS011;43161;50.950;18.224;2023-04-03T03:10:57;16.50;;;4.70;;
57325;SDS011;43161;50.950;18.224;2023-04-03T03:13:23;14.90;;;5.10;;
57325;SDS011;43161;50.950;18.224;2023-04-03T03:15:49;15.00;;;4.90;;
57325;SDS011;43161;50.950;18.224;2023-04-03T03:18:14;15.20;;;4.80;;
57325;SDS011;43161;50.950;18.224;2023-04-03T03:20:40;15.60;;;4.70;;
57325;SDS011;43161;50.950;18.224;2023-04-03T03:23:06;20.40;;;5.50;;
57325;SDS011;43161;50.950;18.224;2023-04-03T03:25:31;19.40;;;5.90;;
57325;SDS011;43161;50.950;18.224;2023-04-03T03:27:57;19.10;;;6.10;;
57325;SDS011;43161;50.950;18.224;2023-04-03T03:30:23;16.00;;;5.70;;
57325;SDS011;43161;50.950;18.224;2023-04-03T03:32:48;17.60;;;6.10;;
57325;SDS011;43161;50.950;18.224;2023-04-03T03:35:14;21.30;;;6.80;;
57325;SDS011;43161;50.950;18.224;2023-04-03T03:37:40;21.80;;;7.10;;
57325;SDS011;43161;50.950;18.224;2023-04-03T03:40:06;19.40;;;6.00;;
57325;SDS011;43161;50.950;18.224;2023-04-03T03:42:32;24.90;;;7.20;;
57325;SDS011;43161;50.950;18.224;2023-04-03T03:44:58;21.10;;;6.10;;
57325;SDS011;43161;50.950;18.224;2023-04-03T03:47:23;17.50;;;6.40;;
57325;SDS011;43161;50.950;18.224;2023-04-03T03:49:49;23.50;;;6.40;;
57325;SDS011;43161;50.950;18.224;2023-04-03T03:52:15;20.50;;;6.30;;
57325;SDS011;43161;50.950;18.224;2023-04-03T03:54:41;21.70;;;5.60;;
57325;SDS011;43161;50.950;18.224;2023-04-03T03:57:06;18.90;;;6.00;;
57325;SDS011;43161;50.950;18.224;2023-04-03T03:59:32;18.80;;;6.00;;
57325;SDS011;43161;50.950;18.224;2023-04-03T04:01:57;18.50;;;5.60;;
57325;SDS011;43161;50.950;18.224;2023-04-03T04:04:23;16.60;;;5.80;;
57325;SDS011;43161;50.950;18.224;2023-04-03T04:06:48;17.40;;;5.80;;
57325;SDS011;43161;50.950;18.224;2023-04-03T04:09:14;22.20;;;6.20;;
57325;SDS011;43161;50.950;18.224;2023-04-03T04:11:40;19.00;;;5.60;;
57325;SDS011;43161;50.950;18.224;2023-04-03T04:14:06;23.50;;;5.90;;
57325;SDS011;43161;50.950;18.224;2023-04-03T04:16:32;18.40;;;5.60;;
57325;SDS011;43161;50.950;18.224;2023-04-03T04:18:57;20.20;;;5.80;;
57325;SDS011;43161;50.950;18.224;2023-04-03T04:21:23;18.80;;;5.80;;
57325;SDS011;43161;50.950;18.224;2023-04-03T04:23:49;18.50;;;5.90;;
57325;SDS011;43161;50.950;18.224;2023-04-03T04:26:15;19.90;;;6.00;;
57325;SDS011;43161;50.950;18.224;2023-04-03T04:28:40;16.50;;;5.70;;
57325;SDS011;43161;50.950;18.224;2023-04-03T04:31:06;15.30;;;4.80;;
57325;SDS011;43161;50.950;18.224;2023-04-03T04:33:32;16.20;;;5.30;;
57325;SDS011;43161;50.950;18.224;2023-04-03T04:35:58;20.10;;;5.90;;
57325;SDS011;43161;50.950;18.224;2023-04-03T04:38:23;18.10;;;5.70;;
57325;SDS011;43161;50.950;18.224;2023-04-03T04:40:50;16.50;;;5.10;;
57325;SDS011;43161;50.950;18.224;2023-04-03T04:43:16;23.20;;;6.10;;
57325;SDS011;43161;50.950;18.224;2023-04-03T04:45:42;23.10;;;5.70;;
57325;SDS011;43161;50.950;18.224;2023-04-03T04:48:07;17.50;;;6.40;;
57325;SDS011;43161;50.950;18.224;2023-04-03T04:50:33;20.90;;;6.70;;
57325;SDS011;43161;50.950;18.224;2023-04-03T04:52:58;19.60;;;6.50;;
57325;SDS011;43161;50.950;18.224;2023-04-03T04:55:24;19.30;;;6.40;;
57325;SDS011;43161;50.950;18.224;2023-04-03T04:57:50;20.40;;;6.50;;
57325;SDS011;43161;50.950;18.224;2023-04-03T05:00:15;16.00;;;6.20;;
57325;SDS011;43161;50.950;18.224;2023-04-03T05:02:41;19.70;;;7.00;;
57325;SDS011;43161;50.950;18.224;2023-04-03T05:05:07;23.60;;;7.30;;
57325;SDS011;43161;50.950;18.224;2023-04-03T05:07:33;23.90;;;6.60;;
57325;SDS011;43161;50.950;18.224;2023-04-03T05:10:01;22.00;;;6.40;;
57325;SDS011;43161;50.950;18.224;2023-04-03T05:12:28;18.30;;;6.90;;
57325;SDS011;43161;50.950;18.224;2023-04-03T05:14:53;19.70;;;6.80;;
57325;SDS011;43161;50.950;18.224;2023-04-03T05:17:19;17.90;;;6.10;;
57325;SDS011;43161;50.950;18.224;2023-04-03T05:19:49;22.90;;;6.60;;
57325;SDS011;43161;50.950;18.224;2023-04-03T05:22:15;21.10;;;6.10;;
57325;SDS011;43161;50.950;18.224;2023-04-03T05:24:40;21.90;;;6.60;;
57325;SDS011;43161;50.950;18.224;2023-04-03T05:27:06;22.80;;;6.60;;
57325;SDS011;43161;50.950;18.224;2023-04-03T05:29:32;23.80;;;7.20;;
57325;SDS011;43161;50.950;18.224;2023-04-03T05:31:57;20.60;;;6.60;;
57325;SDS011;43161;50.950;18.224;2023-04-03T05:34:23;18.90;;;6.00;;
57325;SDS011;43161;50.950;18.224;2023-04-03T05:36:49;17.90;;;6.90;;
57325;SDS011;43161;50.950;18.224;2023-04-03T05:39:14;20.10;;;6.30;;
57325;SDS011;43161;50.950;18.224;2023-04-03T05:41:40;23.30;;;6.20;;
57325;SDS011;43161;50.950;18.224;2023-04-03T05:44:05;21.10;;;7.90;;
57325;SDS011;43161;50.950;18.224;2023-04-03T05:46:31;18.00;;;6.80;;
57325;SDS011;43161;50.950;18.224;2023-04-03T05:48:57;17.80;;;6.10;;
57325;SDS011;43161;50.950;18.224;2023-04-03T05:51:23;24.20;;;7.10;;
57325;SDS011;43161;50.950;18.224;2023-04-03T05:53:55;25.00;;;9.00;;
57325;SDS011;43161;50.950;18.224;2023-04-03T05:56:25;24.20;;;9.70;;
57325;SDS011;43161;50.950;18.224;2023-04-03T05:58:51;23.20;;;8.30;;
57325;SDS011;43161;50.950;18.224;2023-04-03T06:01:16;25.90;;;9.10;;
57325;SDS011;43161;50.950;18.224;2023-04-03T06:03:42;31.10;;;10.20;;
57325;SDS011;43161;50.950;18.224;2023-04-03T06:06:08;30.20;;;9.10;;
57325;SDS011;43161;50.950;18.224;2023-04-03T06:08:38;17.70;;;6.00;;
57325;SDS011;43161;50.950;18.224;2023-04-03T06:11:04;17.70;;;6.60;;
57325;SDS011;43161;50.950;18.224;2023-04-03T06:13:30;17.80;;;6.10;;
57325;SDS011;43161;50.950;18.224;2023-04-03T06:15:57;17.80;;;5.90;;
57325;SDS011;43161;50.950;18.224;2023-04-03T06:18:23;17.20;;;5.70;;
57325;SDS011;43161;50.950;18.224;2023-04-03T06:20:49;19.20;;;5.70;;
57325;SDS011;43161;50.950;18.224;2023-04-03T06:23:15;29.70;;;11.00;;
57325;SDS011;43161;50.950;18.224;2023-04-03T06:25:41;22.70;;;7.00;;
57325;SDS011;43161;50.950;18.224;2023-04-03T06:28:08;18.30;;;5.50;;
57325;SDS011;43161;50.950;18.224;2023-04-03T06:30:35;21.70;;;5.70;;
57325;SDS011;43161;50.950;18.224;2023-04-03T06:33:02;15.00;;;5.00;;
57325;SDS011;43161;50.950;18.224;2023-04-03T06:35:28;17.80;;;4.90;;
57325;SDS011;43161;50.950;18.224;2023-04-03T06:37:55;14.70;;;4.30;;
57325;SDS011;43161;50.950;18.224;2023-04-03T06:40:22;12.50;;;4.40;;
57325;SDS011;43161;50.950;18.224;2023-04-03T06:42:49;13.50;;;4.30;;
57325;SDS011;43161;50.950;18.224;2023-04-03T06:45:15;14.90;;;3.80;;
57325;SDS011;43161;50.950;18.224;2023-04-03T06:47:41;13.50;;;4.10;;
57325;SDS011;43161;50.950;18.224;2023-04-03T06:50:06;18.00;;;3.60;;
57325;SDS011;43161;50.950;18.224;2023-04-03T06:52:34;15.30;;;4.00;;
57325;SDS011;43161;50.950;18.224;2023-04-03T06:55:00;17.40;;;4.00;;
57325;SDS011;43161;50.950;18.224;2023-04-03T06:57:26;14.70;;;4.20;;
57325;SDS011;43161;50.950;18.224;2023-04-03T06:59:51;12.30;;;3.70;;
57325;SDS011;43161;50.950;18.224;2023-04-03T07:02:17;13.30;;;4.40;;
57325;SDS011;43161;50.950;18.224;2023-04-03T07:04:43;14.70;;;3.60;;
57325;SDS011;43161;50.950;18.224;2023-04-03T07:07:09;13.10;;;3.60;;
57325;SDS011;43161;50.950;18.224;2023-04-03T07:09:34;12.80;;;3.70;;
57325;SDS011;43161;50.950;18.224;2023-04-03T07:12:00;11.40;;;3.10;;
57325;SDS011;43161;50.950;18.224;2023-04-03T07:14:26;11.30;;;3.10;;
57325;SDS011;43161;50.950;18.224;2023-04-03T07:16:51;13.10;;;3.40;;
57325;SDS011;43161;50.950;18.224;2023-04-03T07:19:17;11.70;;;3.50;;
57325;SDS011;43161;50.950;18.224;2023-04-03T07:21:43;10.70;;;3.30;;
57325;SDS011;43161;50.950;18.224;2023-04-03T07:24:10;11.30;;;3.00;;
57325;SDS011;43161;50.950;18.224;2023-04-03T07:26:36;10.30;;;2.90;;
57325;SDS011;43161;50.950;18.224;2023-04-03T07:29:02;13.40;;;3.90;;
57325;SDS011;43161;50.950;18.224;2023-04-03T07:31:27;14.40;;;4.40;;
57325;SDS011;43161;50.950;18.224;2023-04-03T07:33:54;21.20;;;5.50;;
57325;SDS011;43161;50.950;18.224;2023-04-03T07:36:21;13.40;;;4.10;;
57325;SDS011;43161;50.950;18.224;2023-04-03T07:38:47;13.90;;;4.90;;
57325;SDS011;43161;50.950;18.224;2023-04-03T07:41:14;18.00;;;4.70;;
57325;SDS011;43161;50.950;18.224;2023-04-03T07:43:43;20.00;;;5.60;;
57325;SDS011;43161;50.950;18.224;2023-04-03T07:46:09;17.60;;;5.60;;
57325;SDS011;43161;50.950;18.224;2023-04-03T07:48:36;14.00;;;4.60;;
57325;SDS011;43161;50.950;18.224;2023-04-03T07:51:02;14.50;;;4.00;;
57325;SDS011;43161;50.950;18.224;2023-04-03T07:53:29;13.40;;;3.50;;
57325;SDS011;43161;50.950;18.224;2023-04-03T07:55:56;16.50;;;6.00;;
57325;SDS011;43161;50.950;18.224;2023-04-03T07:58:22;16.40;;;5.40;;
57325;SDS011;43161;50.950;18.224;2023-04-03T08:00:48;16.60;;;5.70;;
57325;SDS011;43161;50.950;18.224;2023-04-03T08:03:14;10.90;;;3.50;;
57325;SDS011;43161;50.950;18.224;2023-04-03T08:05:42;13.80;;;3.10;;
57325;SDS011;43161;50.950;18.224;2023-04-03T08:08:09;10.70;;;3.00;;
57325;SDS011;43161;50.950;18.224;2023-04-03T08:10:36;10.30;;;2.60;;
57325;SDS011;43161;50.950;18.224;2023-04-03T08:13:02;11.70;;;2.90;;
57325;SDS011;43161;50.950;18.224;2023-04-03T08:15:29;10.90;;;2.20;;
57325;SDS011;43161;50.950;18.224;2023-04-03T08:17:55;9.60;;;2.10;;
57325;SDS011;43161;50.950;18.224;2023-04-03T08:20:21;9.10;;;2.10;;
57325;SDS011;43161;50.950;18.224;2023-04-03T08:22:47;9.80;;;2.10;;
57325;SDS011;43161;50.950;18.224;2023-04-03T08:25:13;6.00;;;1.60;;
57325;SDS011;43161;50.950;18.224;2023-04-03T08:27:39;7.80;;;2.00;;
57325;SDS011;43161;50.950;18.224;2023-04-03T08:30:05;7.70;;;2.00;;
57325;SDS011;43161;50.950;18.224;2023-04-03T08:32:33;8.40;;;2.00;;
57325;SDS011;43161;50.950;18.224;2023-04-03T08:35:00;7.20;;;1.80;;
57325;SDS011;43161;50.950;18.224;2023-04-03T08:37:25;6.40;;;1.50;;
57325;SDS011;43161;50.950;18.224;2023-04-03T08:39:51;9.40;;;1.80;;
57325;SDS011;43161;50.950;18.224;2023-04-03T08:42:21;9.30;;;1.60;;
57325;SDS011;43161;50.950;18.224;2023-04-03T08:45:09;8.40;;;1.90;;
57325;SDS011;43161;50.950;18.224;2023-04-03T08:47:46;8.20;;;1.80;;
57325;SDS011;43161;50.950;18.224;2023-04-03T08:50:19;7.40;;;1.70;;
57325;SDS011;43161;50.950;18.224;2023-04-03T08:52:48;7.30;;;1.80;;
57325;SDS011;43161;50.950;18.224;2023-04-03T08:55:26;7.20;;;1.50;;
57325;SDS011;43161;50.950;18.224;2023-04-03T08:58:04;7.50;;;1.70;;
57325;SDS011;43161;50.950;18.224;2023-04-03T09:00:34;7.40;;;1.90;;
57325;SDS011;43161;50.950;18.224;2023-04-03T09:03:14;5.90;;;1.50;;
57325;SDS011;43161;50.950;18.224;2023-04-03T09:11:06;6.70;;;1.60;;
57325;SDS011;43161;50.950;18.224;2023-04-03T09:13:41;6.20;;;1.50;;
57325;SDS011;43161;50.950;18.224;2023-04-03T09:19:02;7.10;;;2.30;;
57325;SDS011;43161;50.950;18.224;2023-04-03T09:21:39;8.50;;;1.90;;
57325;SDS011;43161;50.950;18.224;2023-04-03T09:24:09;7.80;;;1.70;;
57325;SDS011;43161;50.950;18.224;2023-04-03T09:26:42;8.30;;;1.80;;
57325;SDS011;43161;50.950;18.224;2023-04-03T09:29:12;7.20;;;1.70;;
57325;SDS011;43161;50.950;18.224;2023-04-03T09:31:42;7.10;;;1.60;;
57325;SDS011;43161;50.950;18.224;2023-04-03T09:34:21;8.10;;;1.70;;
57325;SDS011;43161;50.950;18.224;2023-04-03T09:36:54;8.60;;;1.80;;
57325;SDS011;43161;50.950;18.224;2023-04-03T09:39:22;6.30;;;1.60;;
57325;SDS011;43161;50.950;18.224;2023-04-03T09:41:57;7.80;;;1.50;;
57325;SDS011;43161;50.950;18.224;2023-04-03T09:44:28;9.40;;;2.40;;
57325;SDS011;43161;50.950;18.224;2023-04-03T09:46:54;14.90;;;3.70;;
57325;SDS011;43161;50.950;18.224;2023-04-03T09:49:20;16.80;;;5.10;;
57325;SDS011;43161;50.950;18.224;2023-04-03T09:51:46;7.80;;;1.90;;
57325;SDS011;43161;50.950;18.224;2023-04-03T09:57:01;11.10;;;1.90;;
57325;SDS011;43161;50.950;18.224;2023-04-03T09:59:30;9.10;;;2.10;;
57325;SDS011;43161;50.950;18.224;2023-04-03T10:01:57;8.30;;;2.00;;
57325;SDS011;43161;50.950;18.224;2023-04-03T10:04:47;10.80;;;2.10;;
57325;SDS011;43161;50.950;18.224;2023-04-03T10:09:55;11.70;;;2.50;;
57325;SDS011;43161;50.950;18.224;2023-04-03T10:12:23;10.50;;;1.90;;
57325;SDS011;43161;50.950;18.224;2023-04-03T10:22:47;11.50;;;2.60;;
57325;SDS011;43161;50.950;18.224;2023-04-03T10:28:14;11.80;;;2.40;;
57325;SDS011;43161;50.950;18.224;2023-04-03T10:30:49;8.60;;;2.20;;
57325;SDS011;43161;50.950;18.224;2023-04-03T10:38:46;8.70;;;1.70;;
57325;SDS011;43161;50.950;18.224;2023-04-03T10:41:18;13.80;;;3.90;;
57325;SDS011;43161;50.950;18.224;2023-04-03T10:46:47;13.20;;;3.50;;
57325;SDS011;43161;50.950;18.224;2023-04-03T10:52:15;8.30;;;2.00;;
57325;SDS011;43161;50.950;18.224;2023-04-03T10:55:02;14.50;;;4.20;;
57325;SDS011;43161;50.950;18.224;2023-04-03T10:57:32;10.10;;;2.80;;
57325;SDS011;43161;50.950;18.224;2023-04-03T11:00:03;9.00;;;2.30;;
57325;SDS011;43161;50.950;18.224;2023-04-03T11:02:38;7.70;;;2.30;;
57325;SDS011;43161;50.950;18.224;2023-04-03T11:05:18;6.80;;;1.80;;
57325;SDS011;43161;50.950;18.224;2023-04-03T11:10:21;9.70;;;2.20;;
57325;SDS011;43161;50.950;18.224;2023-04-03T11:12:56;9.00;;;2.10;;
57325;SDS011;43161;50.950;18.224;2023-04-03T11:15:27;11.00;;;2.40;;
57325;SDS011;43161;50.950;18.224;2023-04-03T11:17:56;8.50;;;2.00;;
57325;SDS011;43161;50.950;18.224;2023-04-03T11:20:31;12.30;;;3.10;;
57325;SDS011;43161;50.950;18.224;2023-04-03T11:23:20;10.10;;;2.60;;
57325;SDS011;43161;50.950;18.224;2023-04-03T11:25:50;9.80;;;2.30;;
57325;SDS011;43161;50.950;18.224;2023-04-03T11:28:19;8.80;;;2.10;;
57325;SDS011;43161;50.950;18.224;2023-04-03T11:36:06;10.50;;;3.10;;
57325;SDS011;43161;50.950;18.224;2023-04-03T11:38:38;8.90;;;2.60;;
57325;SDS011;43161;50.950;18.224;2023-04-03T11:41:08;8.30;;;2.00;;
57325;SDS011;43161;50.950;18.224;2023-04-03T11:43:40;6.60;;;1.70;;
57325;SDS011;43161;50.950;18.224;2023-04-03T11:46:07;8.70;;;2.20;;
57325;SDS011;43161;50.950;18.224;2023-04-03T11:55:53;9.30;;;2.20;;
57325;SDS011;43161;50.950;18.224;2023-04-03T11:58:28;7.90;;;1.90;;
57325;SDS011;43161;50.950;18.224;2023-04-03T12:48:12;4.50;;;1.40;;
57325;SDS011;43161;50.950;18.224;2023-04-03T12:50:40;5.50;;;1.70;;
57325;SDS011;43161;50.950;18.224;2023-04-03T12:53:10;7.50;;;1.60;;
57325;SDS011;43161;50.950;18.224;2023-04-03T12:55:37;10.20;;;2.40;;
57325;SDS011;43161;50.950;18.224;2023-04-03T13:03:40;7.40;;;2.00;;
57325;SDS011;43161;50.950;18.224;2023-04-03T13:06:28;9.00;;;1.90;;
57325;SDS011;43161;50.950;18.224;2023-04-03T13:08:58;9.80;;;2.50;;
57325;SDS011;43161;50.950;18.224;2023-04-03T13:11:26;7.50;;;1.90;;
57325;SDS011;43161;50.950;18.224;2023-04-03T13:16:42;10.20;;;2.50;;
57325;SDS011;43161;50.950;18.224;2023-04-03T13:19:22;6.80;;;1.80;;
57325;SDS011;43161;50.950;18.224;2023-04-03T13:21:49;8.40;;;2.20;;
57325;SDS011;43161;50.950;18.224;2023-04-03T13:24:22;8.10;;;2.50;;
57325;SDS011;43161;50.950;18.224;2023-04-03T13:26:48;11.10;;;3.20;;
57325;SDS011;43161;50.950;18.224;2023-04-03T13:29:19;9.70;;;2.10;;
57325;SDS011;43161;50.950;18.224;2023-04-03T13:31:51;10.10;;;2.50;;
57325;SDS011;43161;50.950;18.224;2023-04-03T13:34:19;6.20;;;1.70;;
57325;SDS011;43161;50.950;18.224;2023-04-03T13:37:04;7.10;;;1.90;;
57325;SDS011;43161;50.950;18.224;2023-04-03T13:39:33;6.90;;;1.60;;
57325;SDS011;43161;50.950;18.224;2023-04-03T13:44:47;4.60;;;1.50;;
57325;SDS011;43161;50.950;18.224;2023-04-03T13:52:33;14.20;;;3.70;;
57325;SDS011;43161;50.950;18.224;2023-04-03T13:57:53;7.70;;;1.80;;
57325;SDS011;43161;50.950;18.224;2023-04-03T14:03:25;8.30;;;2.00;;
57325;SDS011;43161;50.950;18.224;2023-04-03T14:05:56;9.20;;;2.10;;
57325;SDS011;43161;50.950;18.224;2023-04-03T14:08:22;9.20;;;1.90;;
57325;SDS011;43161;50.950;18.224;2023-04-03T14:10:48;8.80;;;2.20;;
57325;SDS011;43161;50.950;18.224;2023-04-03T14:13:15;6.60;;;1.70;;
57325;SDS011;43161;50.950;18.224;2023-04-03T14:15:43;6.90;;;1.70;;
57325;SDS011;43161;50.950;18.224;2023-04-03T14:18:11;6.90;;;1.60;;
57325;SDS011;43161;50.950;18.224;2023-04-03T14:20:38;5.90;;;1.30;;
57325;SDS011;43161;50.950;18.224;2023-04-03T14:23:04;9.80;;;2.30;;
57325;SDS011;43161;50.950;18.224;2023-04-03T14:25:31;6.00;;;1.70;;
57325;SDS011;43161;50.950;18.224;2023-04-03T14:27:58;6.80;;;1.90;;
57325;SDS011;43161;50.950;18.224;2023-04-03T14:30:26;9.60;;;1.90;;
57325;SDS011;43161;50.950;18.224;2023-04-03T14:32:54;8.30;;;1.60;;
57325;SDS011;43161;50.950;18.224;2023-04-03T14:35:21;9.40;;;2.40;;
57325;SDS011;43161;50.950;18.224;2023-04-03T14:37:47;9.10;;;2.30;;
57325;SDS011;43161;50.950;18.224;2023-04-03T14:42:55;9.00;;;2.40;;
57325;SDS011;43161;50.950;18.224;2023-04-03T14:45:23;9.30;;;2.30;;
57325;SDS011;43161;50.950;18.224;2023-04-03T14:47:50;9.30;;;2.50;;
57325;SDS011;43161;50.950;18.224;2023-04-03T14:50:18;7.30;;;1.80;;
57325;SDS011;43161;50.950;18.224;2023-04-03T14:52:47;5.90;;;1.60;;
57325;SDS011;43161;50.950;18.224;2023-04-03T14:55:17;5.80;;;1.40;;
57325;SDS011;43161;50.950;18.224;2023-04-03T14:57:43;7.10;;;1.50;;
57325;SDS011;43161;50.950;18.224;2023-04-03T15:00:13;9.60;;;2.50;;
57325;SDS011;43161;50.950;18.224;2023-04-03T15:02:43;6.80;;;1.70;;
57325;SDS011;43161;50.950;18.224;2023-04-03T15:05:10;7.20;;;1.60;;
57325;SDS011;43161;50.950;18.224;2023-04-03T15:10:21;18.10;;;5.40;;
57325;SDS011;43161;50.950;18.224;2023-04-03T15:12:49;6.80;;;1.80;;
57325;SDS011;43161;50.950;18.224;2023-04-03T15:15:16;7.70;;;2.10;;
57325;SDS011;43161;50.950;18.224;2023-04-03T15:17:45;7.90;;;1.60;;
57325;SDS011;43161;50.950;18.224;2023-04-03T15:20:15;6.30;;;1.60;;
57325;SDS011;43161;50.950;18.224;2023-04-03T15:22:42;9.80;;;2.00;;
57325;SDS011;43161;50.950;18.224;2023-04-03T15:25:08;8.10;;;2.30;;
57325;SDS011;43161;50.950;18.224;2023-04-03T15:27:35;9.20;;;2.30;;
57325;SDS011;43161;50.950;18.224;2023-04-03T15:30:02;9.60;;;2.30;;
57325;SDS011;43161;50.950;18.224;2023-04-03T15:32:29;12.50;;;3.10;;
57325;SDS011;43161;50.950;18.224;2023-04-03T15:34:54;12.50;;;3.00;;
57325;SDS011;43161;50.950;18.224;2023-04-03T15:37:20;9.50;;;2.60;;
57325;SDS011;43161;50.950;18.224;2023-04-03T15:39:46;7.10;;;2.00;;
57325;SDS011;43161;50.950;18.224;2023-04-03T15:42:11;9.70;;;2.60;;
57325;SDS011;43161;50.950;18.224;2023-04-03T15:44:38;7.20;;;2.40;;
57325;SDS011;43161;50.950;18.224;2023-04-03T15:47:03;8.30;;;2.40;;
57325;SDS011;43161;50.950;18.224;2023-04-03T15:49:30;6.90;;;1.90;;
57325;SDS011;43161;50.950;18.224;2023-04-03T15:51:58;8.70;;;2.50;;
57325;SDS011;43161;50.950;18.224;2023-04-03T15:54:24;8.10;;;2.30;;
57325;SDS011;43161;50.950;18.224;2023-04-03T15:56:50;9.30;;;2.10;;
57325;SDS011;43161;50.950;18.224;2023-04-03T15:59:16;9.10;;;2.50;;
57325;SDS011;43161;50.950;18.224;2023-04-03T16:01:42;8.90;;;2.90;;
57325;SDS011;43161;50.950;18.224;2023-04-03T16:04:09;9.50;;;2.60;;
57325;SDS011;43161;50.950;18.224;2023-04-03T16:06:35;7.40;;;2.20;;
57325;SDS011;43161;50.950;18.224;2023-04-03T16:09:02;9.80;;;2.80;;
57325;SDS011;43161;50.950;18.224;2023-04-03T16:11:28;13.70;;;3.20;;
57325;SDS011;43161;50.950;18.224;2023-04-03T16:13:54;10.00;;;2.20;;
57325;SDS011;43161;50.950;18.224;2023-04-03T16:16:20;9.90;;;2.90;;
57325;SDS011;43161;50.950;18.224;2023-04-03T16:18:47;9.30;;;2.60;;
57325;SDS011;43161;50.950;18.224;2023-04-03T16:21:13;10.00;;;2.40;;
57325;SDS011;43161;50.950;18.224;2023-04-03T16:23:39;7.50;;;2.00;;
57325;SDS011;43161;50.950;18.224;2023-04-03T16:26:05;10.40;;;2.50;;
57325;SDS011;43161;50.950;18.224;2023-04-03T16:28:31;11.40;;;2.90;;
57325;SDS011;43161;50.950;18.224;2023-04-03T16:30:56;9.90;;;3.10;;
57325;SDS011;43161;50.950;18.224;2023-04-03T16:33:22;11.40;;;3.00;;
57325;SDS011;43161;50.950;18.224;2023-04-03T16:35:48;11.00;;;3.10;;
57325;SDS011;43161;50.950;18.224;2023-04-03T16:38:15;9.90;;;3.10;;
57325;SDS011;43161;50.950;18.224;2023-04-03T16:40:41;11.20;;;3.70;;
57325;SDS011;43161;50.950;18.224;2023-04-03T16:43:07;11.20;;;3.60;;
57325;SDS011;43161;50.950;18.224;2023-04-03T16:45:32;13.40;;;4.10;;
57325;SDS011;43161;50.950;18.224;2023-04-03T16:47:58;12.70;;;4.40;;